createdAt,value
2022-08-09T00:11:32.371Z,29
2022-08-09T00:42:38.544Z,29
2022-08-09T01:13:46.071Z,29
2022-08-09T01:44:52.306Z,29
2022-08-09T02:16:00.191Z,29
2022-08-09T02:47:08.438Z,29
2022-08-09T03:18:17.206Z,29
2022-08-09T03:49:20.598Z,29
2022-08-09T04:20:28.099Z,29
2022-08-09T04:51:34.328Z,29
2022-08-09T05:22:54.223Z,29
2022-08-09T05:53:52.715Z,29
2022-08-09T06:25:02.150Z,29
2022-08-09T06:56:08.379Z,29
2022-08-09T07:27:21.048Z,29
2022-08-09T07:58:22.338Z,29
2022-08-09T08:29:28.368Z,29
2022-08-09T09:00:37.538Z,29
2022-08-09T09:31:45.576Z,29
2022-08-09T10:02:54.318Z,29
2022-08-09T10:34:05.892Z,29
2022-08-09T11:05:18.018Z,29
2022-08-09T11:36:26.710Z,29
2022-08-09T12:07:29.517Z,29
2022-08-09T12:38:40.646Z,30
2022-08-09T13:09:53.625Z,30
2022-08-09T13:41:07.806Z,30
2022-08-09T14:12:47.566Z,36
2022-08-09T14:44:03.134Z,40
2022-08-09T15:15:59.139Z,45
2022-08-09T15:47:03.792Z,45
2022-08-09T16:17:07.772Z,35
2022-08-09T16:48:01.066Z,33
2022-08-09T17:19:07.138Z,32
2022-08-09T17:50:11.141Z,32
2022-08-09T18:21:19.729Z,31
2022-08-09T18:52:27.638Z,31
2022-08-09T19:23:36.915Z,31
2022-08-09T19:54:43.749Z,30
2022-08-09T20:25:52.266Z,30
2022-08-09T20:57:01.207Z,30
2022-08-09T21:28:10.842Z,30
2022-08-09T21:59:16.079Z,30
2022-08-09T22:30:22.040Z,30
2022-08-09T23:01:30.327Z,30
2022-08-09T23:32:36.345Z,30
